createdAt,value
2019-05-21T00:00:00.302Z,53.55
2019-05-21T00:01:05.350Z,49.23
2019-05-21T00:02:11.183Z,54.45
2019-05-21T00:03:16.283Z,50.83
2019-05-21T00:04:28.286Z,46.88
2019-05-21T00:05:28.908Z,42.65
2019-05-21T00:06:34.803Z,45.03
2019-05-21T00:07:40.183Z,40.12
2019-05-21T00:08:45.791Z,40.28
2019-05-21T00:09:50.782Z,38.90
2019-05-21T00:10:56.818Z,43.23
2019-05-21T00:12:02.060Z,42.00
2019-05-21T00:13:07.725Z,38.48
2019-05-21T00:14:12.687Z,36.25
2019-05-21T00:15:18.535Z,37.70
2019-05-21T00:16:23.513Z,36.08
2019-05-21T00:17:29.417Z,38.28
2019-05-21T00:18:34.898Z,39.20
2019-05-21T00:19:41.026Z,37.88
2019-05-21T00:20:46.121Z,37.55
2019-05-21T00:21:51.725Z,34.43
2019-05-21T00:22:57.084Z,42.80
2019-05-21T00:24:02.574Z,41.63
2019-05-21T00:25:07.705Z,44.40
2019-05-21T00:26:13.287Z,39.18
2019-05-21T00:27:18.323Z,42.40
2019-05-21T00:28:40.732Z,42.03
2019-05-21T00:30:21.340Z,45.65
2019-05-21T00:32:02.050Z,41.55
2019-05-21T00:33:42.982Z,39.63
2019-05-21T00:35:25.022Z,44.10
2019-05-21T00:37:07.394Z,43.40
2019-05-21T00:38:51.647Z,48.23
2019-05-21T00:40:30.125Z,38.95
2019-05-21T00:42:05.405Z,44.20
2019-05-21T00:43:11.214Z,39.88
2019-05-21T00:44:16.998Z,41.25
2019-05-21T00:45:22.147Z,37.38
2019-05-21T00:46:27.787Z,43.20
2019-05-21T00:47:32.825Z,48.50
2019-05-21T00:48:38.519Z,43.98
2019-05-21T00:49:43.671Z,50.38
2019-05-21T00:50:49.787Z,44.93
2019-05-21T00:52:07.084Z,43.35
2019-05-21T00:53:02.591Z,42.73
2019-05-21T00:54:07.608Z,49.67
2019-05-21T00:55:13.195Z,41.98
2019-05-21T00:56:18.226Z,43.33
2019-05-21T00:57:24.005Z,45.40
2019-05-21T00:58:29.017Z,43.68
2019-05-21T00:59:34.721Z,45.12
2019-05-21T01:00:39.969Z,44.42
2019-05-21T01:01:45.686Z,40.05
2019-05-21T01:02:50.686Z,44.45
2019-05-21T01:03:56.543Z,40.50
2019-05-21T01:05:01.844Z,49.70
2019-05-21T01:06:08.052Z,40.38
2019-05-21T01:07:13.329Z,41.63
2019-05-21T01:08:19.570Z,41.28
2019-05-21T01:09:24.671Z,44.35
2019-05-21T01:10:30.357Z,46.15
2019-05-21T01:11:35.397Z,45.80
2019-05-21T01:12:41.043Z,42.50
2019-05-21T01:13:46.460Z,47.08
2019-05-21T01:14:52.342Z,41.40
2019-05-21T01:15:57.656Z,51.48
2019-05-21T01:17:03.239Z,43.10
2019-05-21T01:18:08.525Z,40.48
2019-05-21T01:19:14.118Z,43.20
2019-05-21T01:20:19.341Z,43.15
2019-05-21T01:21:24.903Z,44.00
2019-05-21T01:22:30.138Z,46.90
2019-05-21T01:23:35.723Z,43.38
2019-05-21T01:24:41.039Z,50.05
2019-05-21T01:25:46.697Z,45.50
2019-05-21T01:26:51.717Z,50.45
2019-05-21T01:27:57.253Z,44.75
2019-05-21T01:29:02.419Z,41.92
2019-05-21T01:30:08.224Z,44.93
2019-05-21T01:31:13.240Z,43.85
2019-05-21T01:32:19.097Z,46.40
2019-05-21T01:33:24.062Z,51.33
2019-05-21T01:34:29.968Z,46.65
2019-05-21T01:35:34.937Z,47.73
2019-05-21T01:36:40.476Z,49.18
2019-05-21T01:37:45.451Z,48.38
2019-05-21T01:38:51.122Z,51.15
2019-05-21T01:39:56.262Z,48.70
2019-05-21T01:41:01.764Z,47.80
2019-05-21T01:42:06.773Z,45.60
2019-05-21T01:43:12.357Z,51.90
2019-05-21T01:44:17.484Z,45.43
2019-05-21T01:45:22.997Z,48.48
2019-05-21T01:46:28.017Z,48.95
2019-05-21T01:47:33.544Z,57.10
2019-05-21T01:48:38.844Z,47.88
2019-05-21T01:49:44.390Z,53.02
2019-05-21T01:50:49.429Z,47.45
2019-05-21T01:51:55.623Z,51.10
2019-05-21T01:53:01.605Z,55.03
2019-05-21T01:54:07.205Z,52.78
2019-05-21T01:55:12.561Z,52.95
2019-05-21T01:56:18.090Z,50.03
2019-05-21T01:57:23.033Z,73.65
2019-05-21T01:58:28.898Z,63.87
2019-05-21T01:59:34.301Z,54.42
2019-05-21T02:00:39.977Z,54.13
2019-05-21T02:01:45.269Z,55.40
2019-05-21T02:02:51.100Z,54.38
2019-05-21T02:03:56.238Z,51.50
2019-05-21T02:05:02.212Z,51.18
2019-05-21T02:06:07.249Z,52.95
2019-05-21T02:07:13.148Z,55.48
2019-05-21T02:08:18.223Z,52.75
2019-05-21T02:09:23.847Z,54.85
2019-05-21T02:10:28.959Z,49.03
2019-05-21T02:11:34.569Z,49.63
2019-05-21T02:12:39.721Z,47.73
2019-05-21T02:13:45.292Z,59.33
2019-05-21T02:14:50.735Z,57.25
2019-05-21T02:15:56.958Z,55.35
2019-05-21T02:17:01.967Z,52.03
2019-05-21T02:18:07.583Z,47.03
2019-05-21T02:19:12.708Z,53.13
2019-05-21T02:20:18.345Z,52.45
2019-05-21T02:21:23.395Z,52.85
2019-05-21T02:22:29.307Z,51.10
2019-05-21T02:23:34.713Z,53.63
2019-05-21T02:24:40.275Z,57.48
2019-05-21T02:25:45.321Z,50.60
2019-05-21T02:26:50.830Z,59.25
2019-05-21T02:27:56.110Z,56.80
2019-05-21T02:29:02.110Z,52.75
2019-05-21T02:30:09.822Z,50.88
2019-05-21T02:31:15.970Z,53.33
2019-05-21T02:32:21.038Z,50.30
2019-05-21T02:33:26.630Z,51.73
2019-05-21T02:34:31.838Z,45.25
2019-05-21T02:35:52.780Z,55.38
2019-05-21T02:36:44.450Z,50.73
2019-05-21T02:37:49.987Z,49.65
2019-05-21T02:38:55.075Z,52.80
2019-05-21T02:40:02.297Z,53.87
2019-05-21T02:41:07.770Z,55.00
2019-05-21T02:42:13.527Z,47.70
2019-05-21T02:43:18.884Z,50.28
2019-05-21T02:44:24.694Z,49.50
2019-05-21T02:45:29.784Z,47.83
2019-05-21T02:46:35.368Z,48.58
2019-05-21T02:47:40.451Z,43.45
2019-05-21T02:48:46.068Z,48.55
2019-05-21T02:49:51.084Z,53.38
2019-05-21T02:50:56.670Z,49.83
2019-05-21T02:52:01.775Z,43.60
2019-05-21T02:53:07.325Z,48.65
2019-05-21T02:54:12.580Z,49.03
2019-05-21T02:55:18.501Z,50.73
2019-05-21T02:56:24.146Z,46.95
2019-05-21T02:57:48.524Z,44.67
2019-05-21T02:58:53.537Z,47.27
2019-05-21T03:00:00.202Z,46.42
2019-05-21T03:01:27.503Z,42.60
2019-05-21T03:02:37.803Z,38.73
2019-05-21T03:03:43.495Z,48.70
2019-05-21T03:04:48.637Z,51.75
2019-05-21T03:06:12.525Z,46.63
2019-05-21T03:07:19.594Z,41.42
2019-05-21T03:08:25.245Z,47.25
2019-05-21T03:09:30.348Z,51.50
2019-05-21T03:10:35.928Z,51.20
2019-05-21T03:11:41.046Z,46.13
2019-05-21T03:12:49.545Z,44.23
2019-05-21T03:13:54.671Z,51.35
2019-05-21T03:15:00.315Z,49.23
2019-05-21T03:16:05.435Z,49.30
2019-05-21T03:17:11.098Z,47.08
2019-05-21T03:18:16.125Z,50.88
2019-05-21T03:19:21.820Z,55.28
2019-05-21T03:20:26.971Z,59.55
2019-05-21T03:21:32.681Z,49.77
2019-05-21T03:22:37.757Z,53.83
2019-05-21T03:23:43.305Z,46.20
2019-05-21T03:24:48.316Z,48.45
2019-05-21T03:25:53.999Z,50.58
2019-05-21T03:26:59.277Z,49.30
2019-05-21T03:28:04.932Z,50.95
2019-05-21T03:29:09.980Z,56.70
2019-05-21T03:30:16.171Z,48.30
2019-05-21T03:31:21.314Z,46.88
2019-05-21T03:32:27.194Z,49.63
2019-05-21T03:33:32.233Z,49.10
2019-05-21T03:34:37.940Z,45.70
2019-05-21T03:35:43.115Z,42.17
2019-05-21T03:36:48.947Z,55.55
2019-05-21T03:37:53.939Z,50.90
2019-05-21T03:38:59.793Z,56.55
2019-05-21T03:40:05.534Z,55.70
2019-05-21T03:41:11.415Z,46.98
2019-05-21T03:42:16.567Z,48.48
2019-05-21T03:43:22.490Z,48.10
2019-05-21T03:44:27.625Z,51.15
2019-05-21T03:45:33.538Z,55.80
2019-05-21T03:46:38.699Z,64.50
2019-05-21T03:47:44.551Z,92.20
2019-05-21T03:48:49.582Z,52.62
2019-05-21T03:49:55.366Z,60.88
2019-05-21T03:51:00.307Z,60.73
2019-05-21T03:52:05.982Z,58.42
2019-05-21T03:53:11.186Z,56.48
2019-05-21T03:54:16.967Z,48.02
2019-05-21T03:55:22.111Z,59.65
2019-05-21T03:56:27.719Z,54.48
2019-05-21T03:57:32.871Z,63.23
2019-05-21T03:58:38.791Z,51.05
2019-05-21T03:59:44.471Z,54.98
2019-05-21T04:00:50.625Z,53.33
2019-05-21T04:01:55.632Z,59.15
2019-05-21T04:03:01.479Z,69.90
2019-05-21T04:04:06.602Z,55.15
2019-05-21T04:05:12.577Z,57.58
2019-05-21T04:06:17.930Z,61.83
2019-05-21T04:07:23.864Z,59.03
2019-05-21T04:08:28.904Z,62.40
2019-05-21T04:09:34.778Z,57.00
2019-05-21T04:10:40.024Z,63.20
2019-05-21T04:11:45.868Z,55.33
2019-05-21T04:13:07.089Z,62.58
2019-05-21T04:14:14.425Z,65.78
2019-05-21T04:15:21.114Z,58.95
2019-05-21T04:16:36.061Z,64.22
2019-05-21T04:17:53.399Z,67.00
2019-05-21T04:19:11.852Z,70.28
2019-05-21T04:20:17.010Z,64.87
2019-05-21T04:21:22.614Z,67.10
2019-05-21T04:22:27.669Z,67.65
2019-05-21T04:23:33.194Z,69.50
2019-05-21T04:24:38.194Z,64.58
2019-05-21T04:25:43.959Z,72.40
2019-05-21T04:26:49.445Z,57.53
2019-05-21T04:27:55.485Z,69.85
2019-05-21T04:29:00.767Z,73.05
2019-05-21T04:30:10.877Z,77.37
2019-05-21T04:31:13.772Z,70.60
2019-05-21T04:32:19.519Z,67.97
2019-05-21T04:33:24.545Z,85.17
2019-05-21T04:34:30.849Z,67.55
2019-05-21T04:35:35.953Z,79.55
2019-05-21T04:36:41.553Z,72.22
2019-05-21T04:37:46.614Z,76.95
2019-05-21T04:38:52.819Z,69.20
2019-05-21T04:39:57.904Z,85.05
2019-05-21T04:41:05.468Z,72.95
2019-05-21T04:42:10.982Z,76.60
2019-05-21T04:43:16.604Z,79.35
2019-05-21T04:44:21.628Z,72.58
2019-05-21T04:45:27.325Z,72.90
2019-05-21T04:46:32.767Z,84.42
2019-05-21T04:47:38.399Z,79.40
2019-05-21T04:48:43.658Z,75.50
2019-05-21T04:49:49.389Z,72.25
2019-05-21T04:50:54.556Z,69.47
2019-05-21T04:52:00.411Z,74.30
2019-05-21T04:53:05.523Z,90.85
2019-05-21T04:54:11.377Z,84.95
2019-05-21T04:55:16.516Z,82.53
2019-05-21T04:56:22.192Z,88.17
2019-05-21T04:57:27.155Z,77.92
2019-05-21T04:58:32.876Z,80.95
2019-05-21T04:59:38.384Z,74.60
2019-05-21T05:00:47.445Z,88.45
2019-05-21T05:01:52.699Z,85.92
2019-05-21T05:02:58.373Z,81.25
2019-05-21T05:04:03.755Z,73.95
2019-05-21T05:05:09.545Z,77.67
2019-05-21T05:06:14.776Z,89.55
2019-05-21T05:07:28.088Z,81.20
2019-05-21T05:08:27.207Z,85.65
2019-05-21T05:09:33.660Z,86.75
2019-05-21T05:10:38.639Z,77.42
2019-05-21T05:11:44.306Z,75.65
2019-05-21T05:12:49.514Z,84.32
2019-05-21T05:13:55.130Z,88.12
2019-05-21T05:15:00.522Z,78.00
2019-05-21T05:16:06.574Z,83.55
2019-05-21T05:17:11.718Z,77.55
2019-05-21T05:18:17.330Z,89.07
2019-05-21T05:19:22.472Z,73.67
2019-05-21T05:20:28.196Z,79.05
2019-05-21T05:21:33.323Z,83.90
2019-05-21T05:22:39.069Z,84.83
2019-05-21T05:23:44.442Z,87.30
2019-05-21T05:24:50.624Z,69.97
2019-05-21T05:25:56.047Z,87.75
2019-05-21T05:27:01.736Z,82.30
2019-05-21T05:28:07.010Z,78.65
2019-05-21T05:29:12.748Z,84.37
2019-05-21T05:30:18.457Z,83.62
2019-05-21T05:31:26.038Z,88.07
2019-05-21T05:32:31.274Z,86.12
2019-05-21T05:33:36.951Z,98.17
2019-05-21T05:34:41.960Z,93.97
2019-05-21T05:35:47.455Z,81.55
2019-05-21T05:36:52.717Z,89.95
2019-05-21T05:37:58.351Z,84.28
2019-05-21T05:39:04.330Z,85.95
2019-05-21T05:40:10.457Z,92.30
2019-05-21T05:41:15.797Z,94.28
2019-05-21T05:42:21.309Z,88.75
2019-05-21T05:43:26.402Z,88.80
2019-05-21T05:44:32.428Z,99.13
2019-05-21T05:45:37.693Z,113.57
2019-05-21T05:46:43.580Z,88.17
2019-05-21T05:47:48.581Z,79.35
2019-05-21T05:49:05.118Z,106.80
2019-05-21T05:50:12.068Z,96.82
2019-05-21T05:51:17.950Z,92.60
2019-05-21T05:52:22.974Z,87.42
2019-05-21T05:53:28.667Z,98.00
2019-05-21T05:54:33.801Z,103.75
2019-05-21T05:55:39.592Z,102.27
2019-05-21T05:56:44.896Z,107.20
2019-05-21T05:57:50.528Z,103.10
2019-05-21T05:58:55.978Z,107.37
2019-05-21T06:00:01.870Z,100.70
2019-05-21T06:01:07.186Z,100.12
2019-05-21T06:02:12.852Z,110.60
2019-05-21T06:03:18.012Z,101.30
2019-05-21T06:04:24.205Z,101.87
2019-05-21T06:05:29.339Z,101.75
2019-05-21T06:06:35.099Z,104.75
2019-05-21T06:07:40.064Z,103.72
2019-05-21T06:08:45.653Z,115.10
2019-05-21T06:09:51.033Z,104.78
2019-05-21T06:10:57.015Z,106.20
2019-05-21T06:12:02.526Z,104.30
2019-05-21T06:13:08.161Z,92.33
2019-05-21T06:14:13.447Z,101.78
2019-05-21T06:15:19.687Z,75.32
2019-05-21T06:16:25.094Z,96.37
2019-05-21T06:17:31.100Z,96.53
2019-05-21T06:18:36.259Z,99.45
2019-05-21T06:19:42.203Z,89.50
2019-05-21T06:20:47.298Z,98.45
2019-05-21T06:21:52.983Z,104.25
2019-05-21T06:22:58.401Z,104.07
2019-05-21T06:24:04.428Z,92.42
2019-05-21T06:25:10.435Z,91.50
2019-05-21T06:26:16.043Z,90.75
2019-05-21T06:27:21.329Z,96.37
2019-05-21T06:28:26.882Z,94.85
2019-05-21T06:29:31.948Z,85.15
2019-05-21T06:30:38.117Z,90.47
2019-05-21T06:31:43.260Z,107.85
2019-05-21T06:32:49.324Z,95.67
2019-05-21T06:33:54.349Z,92.82
2019-05-21T06:35:00.449Z,104.80
2019-05-21T06:36:05.627Z,105.58
2019-05-21T06:37:11.213Z,83.07
2019-05-21T06:38:18.330Z,97.72
2019-05-21T06:39:24.092Z,86.25
2019-05-21T06:40:29.171Z,94.42
2019-05-21T06:41:35.086Z,92.60
2019-05-21T06:42:40.401Z,87.22
2019-05-21T06:43:45.973Z,81.75
2019-05-21T06:44:51.424Z,75.87
2019-05-21T06:45:57.245Z,74.27
2019-05-21T06:47:02.700Z,77.92
2019-05-21T06:48:08.316Z,79.55
2019-05-21T06:49:13.658Z,85.72
2019-05-21T06:50:19.439Z,74.07
2019-05-21T06:51:24.534Z,72.17
2019-05-21T06:52:30.051Z,77.55
2019-05-21T06:53:35.193Z,78.45
2019-05-21T06:54:40.921Z,67.90
2019-05-21T06:55:46.306Z,61.88
2019-05-21T06:56:52.147Z,75.42
2019-05-21T06:57:57.185Z,70.10
2019-05-21T06:59:02.890Z,68.10
2019-05-21T07:00:09.487Z,79.40
2019-05-21T07:01:15.082Z,78.52
2019-05-21T07:02:20.139Z,80.75
2019-05-21T07:03:25.764Z,69.22
2019-05-21T07:04:30.737Z,65.37
2019-05-21T07:05:36.273Z,64.95
2019-05-21T07:06:44.619Z,67.12
2019-05-21T07:07:48.628Z,62.98
2019-05-21T07:08:53.677Z,67.25
2019-05-21T07:09:59.268Z,68.22
2019-05-21T07:11:04.583Z,72.55
2019-05-21T07:12:10.557Z,70.87
2019-05-21T07:13:15.791Z,72.27
2019-05-21T07:14:21.538Z,67.62
2019-05-21T07:15:26.751Z,66.57
2019-05-21T07:16:32.588Z,70.10
2019-05-21T07:17:37.599Z,59.42
2019-05-21T07:18:43.333Z,63.98
2019-05-21T07:19:48.499Z,70.57
2019-05-21T07:20:54.332Z,65.85
2019-05-21T07:22:12.233Z,70.57
2019-05-21T07:23:06.898Z,57.45
2019-05-21T07:24:12.673Z,63.28
2019-05-21T07:25:18.850Z,66.35
2019-05-21T07:26:23.870Z,75.90
2019-05-21T07:27:29.815Z,78.07
2019-05-21T07:28:34.976Z,74.25
2019-05-21T07:29:40.462Z,57.20
2019-05-21T07:30:45.784Z,69.53
2019-05-21T07:31:51.355Z,68.72
2019-05-21T07:32:56.926Z,64.45
2019-05-21T07:34:02.625Z,59.42
2019-05-21T07:35:07.811Z,70.45
2019-05-21T07:36:13.484Z,69.17
2019-05-21T07:37:18.799Z,63.50
2019-05-21T07:38:25.203Z,64.58
2019-05-21T07:39:30.535Z,61.25
2019-05-21T07:40:36.309Z,59.83
2019-05-21T07:41:41.450Z,67.22
2019-05-21T07:42:47.035Z,51.68
2019-05-21T07:43:52.154Z,59.93
2019-05-21T07:44:57.889Z,62.55
2019-05-21T07:46:03.302Z,58.58
2019-05-21T07:47:08.959Z,66.07
2019-05-21T07:48:14.312Z,64.77
2019-05-21T07:49:19.889Z,66.17
2019-05-21T07:50:25.196Z,62.93
2019-05-21T07:51:31.276Z,62.98
2019-05-21T07:52:36.462Z,61.73
2019-05-21T07:53:42.086Z,61.35
2019-05-21T07:54:47.245Z,61.05
2019-05-21T07:55:52.931Z,70.22
2019-05-21T07:56:58.341Z,62.90
2019-05-21T07:58:03.854Z,62.08
2019-05-21T07:59:08.989Z,57.27
2019-05-21T08:00:16.246Z,61.15
2019-05-21T08:01:21.293Z,54.38
2019-05-21T08:02:26.971Z,70.83
2019-05-21T08:03:32.106Z,57.20
2019-05-21T08:04:37.701Z,58.60
2019-05-21T08:05:42.696Z,62.33
2019-05-21T08:06:48.293Z,66.00
2019-05-21T08:07:53.405Z,66.35
2019-05-21T08:09:12.419Z,61.00
2019-05-21T08:10:07.103Z,61.60
2019-05-21T08:11:12.736Z,60.03
2019-05-21T08:12:37.464Z,58.17
2019-05-21T08:13:25.330Z,63.05
2019-05-21T08:14:30.352Z,62.13
2019-05-21T08:15:36.271Z,60.67
2019-05-21T08:16:41.484Z,57.13
2019-05-21T08:17:47.345Z,62.45
2019-05-21T08:18:52.599Z,51.18
2019-05-21T08:20:08.517Z,53.20
2019-05-21T08:21:05.233Z,51.28
2019-05-21T08:22:10.893Z,54.10
2019-05-21T08:23:15.944Z,54.88
2019-05-21T08:24:21.797Z,49.55
2019-05-21T08:25:27.007Z,59.67
2019-05-21T08:26:32.863Z,53.98
2019-05-21T08:27:37.941Z,52.40
2019-05-21T08:28:43.616Z,64.17
2019-05-21T08:29:49.575Z,48.30
2019-05-21T08:30:55.823Z,52.45
2019-05-21T08:32:00.776Z,48.95
2019-05-21T08:33:06.468Z,46.70
2019-05-21T08:34:11.524Z,46.98
2019-05-21T08:35:17.616Z,55.35
2019-05-21T08:36:22.690Z,63.30
2019-05-21T08:37:28.282Z,66.22
2019-05-21T08:38:33.359Z,56.60
2019-05-21T08:39:39.598Z,58.58
2019-05-21T08:40:45.627Z,52.93
2019-05-21T08:41:51.287Z,56.98
2019-05-21T08:42:56.305Z,58.45
2019-05-21T08:44:02.133Z,54.53
2019-05-21T08:45:07.817Z,55.98
2019-05-21T08:46:13.684Z,63.85
2019-05-21T08:47:19.090Z,55.05
2019-05-21T08:48:24.750Z,57.13
2019-05-21T08:49:29.922Z,60.17
2019-05-21T08:50:36.154Z,51.98
2019-05-21T08:51:41.418Z,59.67
2019-05-21T08:52:47.123Z,57.50
2019-05-21T08:53:52.457Z,59.65
2019-05-21T08:54:58.221Z,67.32
2019-05-21T08:56:03.394Z,56.42
2019-05-21T08:57:09.041Z,55.38
2019-05-21T08:58:14.188Z,63.87
2019-05-21T08:59:19.676Z,58.68
2019-05-21T09:00:25.701Z,59.03
2019-05-21T09:01:31.634Z,57.17
2019-05-21T09:02:36.743Z,62.80
2019-05-21T09:03:42.446Z,60.08
2019-05-21T09:04:47.585Z,55.15
2019-05-21T09:05:53.207Z,64.62
2019-05-21T09:06:58.310Z,52.70
2019-05-21T09:08:04.057Z,52.78
2019-05-21T09:09:09.196Z,59.73
2019-05-21T09:10:16.541Z,57.65
2019-05-21T09:11:21.561Z,50.33
2019-05-21T09:12:27.229Z,51.08
2019-05-21T09:13:32.505Z,52.58
2019-05-21T09:14:38.083Z,47.67
2019-05-21T09:15:43.108Z,47.95
2019-05-21T09:16:48.796Z,51.05
2019-05-21T09:17:53.896Z,51.85
2019-05-21T09:18:59.795Z,50.50
2019-05-21T09:20:06.305Z,46.42
2019-05-21T09:21:13.329Z,45.15
2019-05-21T09:22:21.767Z,45.00
2019-05-21T09:23:27.803Z,49.13
2019-05-21T09:24:33.251Z,44.85
2019-05-21T09:25:39.501Z,42.10
2019-05-21T09:26:45.026Z,47.25
2019-05-21T09:27:51.254Z,45.58
2019-05-21T09:28:57.263Z,45.73
2019-05-21T09:30:03.603Z,41.73
2019-05-21T09:31:09.144Z,44.83
2019-05-21T09:32:18.396Z,42.85
2019-05-21T09:33:24.307Z,44.08
2019-05-21T09:34:46.031Z,48.85
2019-05-21T09:35:36.688Z,38.98
2019-05-21T09:36:42.621Z,46.55
2019-05-21T09:37:47.640Z,44.40
2019-05-21T09:38:53.457Z,42.48
2019-05-21T09:39:58.655Z,41.13
2019-05-21T09:41:04.267Z,45.88
2019-05-21T09:42:09.619Z,45.43
2019-05-21T09:43:15.304Z,39.63
2019-05-21T09:44:20.308Z,42.62
2019-05-21T09:45:25.911Z,42.45
2019-05-21T09:46:31.256Z,45.30
2019-05-21T09:47:36.948Z,44.80
2019-05-21T09:48:42.156Z,49.45
2019-05-21T09:49:47.819Z,45.85
2019-05-21T09:50:53.174Z,45.30
2019-05-21T09:51:58.782Z,46.95
2019-05-21T09:53:03.765Z,52.27
2019-05-21T09:54:10.025Z,48.92
2019-05-21T09:55:15.123Z,50.95
2019-05-21T09:56:33.593Z,49.83
2019-05-21T09:57:48.527Z,47.27
2019-05-21T09:58:55.448Z,44.20
2019-05-21T10:00:12.216Z,50.80
2019-05-21T10:01:31.984Z,49.50
2019-05-21T10:02:37.179Z,43.75
2019-05-21T10:03:43.889Z,49.77
2019-05-21T10:04:49.184Z,50.15
2019-05-21T10:05:54.941Z,47.73
2019-05-21T10:07:00.100Z,41.80
2019-05-21T10:08:06.367Z,45.78
2019-05-21T10:09:15.492Z,45.23
2019-05-21T10:10:21.158Z,42.65
2019-05-21T10:11:26.510Z,42.20
2019-05-21T10:12:32.181Z,44.25
2019-05-21T10:13:37.232Z,46.68
2019-05-21T10:14:43.139Z,45.03
2019-05-21T10:15:48.331Z,34.50
2019-05-21T10:16:54.095Z,43.02
2019-05-21T10:17:59.136Z,37.75
2019-05-21T10:19:04.794Z,47.38
2019-05-21T10:20:10.278Z,49.77
2019-05-21T10:21:15.970Z,45.50
2019-05-21T10:22:21.229Z,45.83
2019-05-21T10:23:26.982Z,46.80
2019-05-21T10:24:32.369Z,49.25
2019-05-21T10:25:38.533Z,42.25
2019-05-21T10:26:43.649Z,54.35
2019-05-21T10:27:49.397Z,49.77
2019-05-21T10:28:54.915Z,49.60
2019-05-21T10:30:00.456Z,48.68
2019-05-21T10:31:05.562Z,50.23
2019-05-21T10:32:11.233Z,50.70
2019-05-21T10:33:16.395Z,52.55
2019-05-21T10:34:22.478Z,58.30
2019-05-21T10:35:27.980Z,49.25
2019-05-21T10:36:33.659Z,59.25
2019-05-21T10:37:53.754Z,46.80
2019-05-21T10:38:46.076Z,51.35
2019-05-21T10:39:51.446Z,46.68
2019-05-21T10:40:57.322Z,52.15
2019-05-21T10:42:02.604Z,49.13
2019-05-21T10:43:08.995Z,50.12
2019-05-21T10:44:15.277Z,56.65
2019-05-21T10:45:21.254Z,52.48
2019-05-21T10:46:26.599Z,57.67
2019-05-21T10:47:32.305Z,57.25
2019-05-21T10:48:37.331Z,55.95
2019-05-21T10:49:43.178Z,55.48
2019-05-21T10:50:48.437Z,59.03
2019-05-21T10:51:54.116Z,55.67
2019-05-21T10:52:59.255Z,50.83
2019-05-21T10:54:06.412Z,57.50
2019-05-21T10:55:16.146Z,62.05
2019-05-21T10:56:22.079Z,63.55
2019-05-21T10:57:27.254Z,57.05
2019-05-21T10:58:33.936Z,55.33
2019-05-21T10:59:38.957Z,68.42
2019-05-21T11:00:45.143Z,67.42
2019-05-21T11:02:08.143Z,63.05
2019-05-21T11:03:18.445Z,58.42
2019-05-21T11:04:40.954Z,62.25
2019-05-21T11:05:48.929Z,63.45
2019-05-21T11:06:54.869Z,58.10
2019-05-21T11:08:22.337Z,68.28
2019-05-21T11:09:10.626Z,62.70
2019-05-21T11:10:16.110Z,58.20
2019-05-21T11:11:21.816Z,62.70
2019-05-21T11:12:26.999Z,50.60
2019-05-21T11:13:32.830Z,64.67
2019-05-21T11:14:38.136Z,60.23
2019-05-21T11:15:43.863Z,63.50
2019-05-21T11:16:49.181Z,62.03
2019-05-21T11:18:09.754Z,60.28
2019-05-21T11:19:01.697Z,54.48
2019-05-21T11:20:07.733Z,66.50
2019-05-21T11:21:12.849Z,59.13
2019-05-21T11:22:18.546Z,62.20
2019-05-21T11:23:23.686Z,59.42
2019-05-21T11:24:29.335Z,58.13
2019-05-21T11:25:34.565Z,61.00
2019-05-21T11:26:40.182Z,63.68
2019-05-21T11:27:45.531Z,64.40
2019-05-21T11:28:51.585Z,62.75
2019-05-21T11:29:56.575Z,67.45
2019-05-21T11:31:02.188Z,68.37
2019-05-21T11:32:09.830Z,62.78
2019-05-21T11:33:15.746Z,58.75
2019-05-21T11:34:20.787Z,59.08
2019-05-21T11:35:26.628Z,62.62
2019-05-21T11:36:31.827Z,61.42
2019-05-21T11:37:37.706Z,62.60
2019-05-21T11:38:42.873Z,60.00
2019-05-21T11:39:48.624Z,62.70
2019-05-21T11:40:53.653Z,64.97
2019-05-21T11:41:59.219Z,60.08
2019-05-21T11:43:04.411Z,69.00
2019-05-21T11:44:10.131Z,68.67
2019-05-21T11:45:31.186Z,59.08
2019-05-21T11:46:22.989Z,68.75
2019-05-21T11:47:28.108Z,70.67
2019-05-21T11:48:33.807Z,72.10
2019-05-21T11:49:39.258Z,55.78
2019-05-21T11:50:45.099Z,56.48
2019-05-21T11:51:50.437Z,56.42
2019-05-21T11:52:56.399Z,61.05
2019-05-21T11:54:01.500Z,62.33
2019-05-21T11:55:07.277Z,61.63
2019-05-21T11:56:12.326Z,61.83
2019-05-21T11:57:17.991Z,52.30
2019-05-21T11:58:23.568Z,61.08
2019-05-21T11:59:29.393Z,64.40
2019-05-21T12:00:34.932Z,63.00
2019-05-21T12:01:40.596Z,72.90
2019-05-21T12:02:45.623Z,60.33
2019-05-21T12:03:51.578Z,63.92
2019-05-21T12:04:56.948Z,53.38
2019-05-21T12:06:02.483Z,64.35
2019-05-21T12:07:07.721Z,52.50
2019-05-21T12:08:13.610Z,61.60
2019-05-21T12:09:18.694Z,60.38
2019-05-21T12:10:24.313Z,60.45
2019-05-21T12:11:29.393Z,59.30
2019-05-21T12:12:35.213Z,70.95
2019-05-21T12:13:40.292Z,61.25
2019-05-21T12:14:45.888Z,75.78
2019-05-21T12:15:51.233Z,63.58
2019-05-21T12:16:57.011Z,62.03
2019-05-21T12:18:02.303Z,52.80
2019-05-21T12:19:08.737Z,53.65
2019-05-21T12:20:14.491Z,56.68
2019-05-21T12:21:20.291Z,64.60
2019-05-21T12:22:25.233Z,53.35
2019-05-21T12:23:31.276Z,65.30
2019-05-21T12:24:36.914Z,65.05
2019-05-21T12:25:42.557Z,58.42
2019-05-21T12:26:47.681Z,58.85
2019-05-21T12:27:53.719Z,63.33
2019-05-21T12:28:58.849Z,57.03
2019-05-21T12:30:04.818Z,63.55
2019-05-21T12:31:09.895Z,55.43
2019-05-21T12:32:15.436Z,52.70
2019-05-21T12:33:20.403Z,63.17
2019-05-21T12:34:26.002Z,59.80
2019-05-21T12:35:31.202Z,52.20
2019-05-21T12:36:36.905Z,57.70
2019-05-21T12:37:42.221Z,66.22
2019-05-21T12:38:47.880Z,54.08
2019-05-21T12:39:53.246Z,56.33
2019-05-21T12:40:58.990Z,57.50
2019-05-21T12:42:04.550Z,54.48
2019-05-21T12:43:10.240Z,53.90
2019-05-21T12:44:15.376Z,74.00
2019-05-21T12:45:21.086Z,56.48
2019-05-21T12:46:26.159Z,55.63
2019-05-21T12:47:31.819Z,67.32
2019-05-21T12:48:36.855Z,67.32
2019-05-21T12:49:42.517Z,64.90
2019-05-21T12:50:47.942Z,68.45
2019-05-21T12:51:53.683Z,54.93
2019-05-21T12:52:58.792Z,55.38
2019-05-21T12:54:04.853Z,56.73
2019-05-21T12:55:10.492Z,57.23
2019-05-21T12:56:16.344Z,58.15
2019-05-21T12:57:21.590Z,62.80
2019-05-21T12:58:27.516Z,57.50
2019-05-21T12:59:32.654Z,58.95
2019-05-21T13:00:40.208Z,49.73
2019-05-21T13:01:45.337Z,57.17
2019-05-21T13:02:50.948Z,60.10
2019-05-21T13:03:56.055Z,53.75
2019-05-21T13:05:01.577Z,57.45
2019-05-21T13:06:06.741Z,56.60
2019-05-21T13:07:12.582Z,55.88
2019-05-21T13:08:17.873Z,52.05
2019-05-21T13:09:32.297Z,54.95
2019-05-21T13:10:30.318Z,55.88
2019-05-21T13:11:36.313Z,57.62
2019-05-21T13:12:41.638Z,54.77
2019-05-21T13:13:47.326Z,57.05
2019-05-21T13:14:52.468Z,57.65
2019-05-21T13:15:58.228Z,53.87
2019-05-21T13:17:03.580Z,63.45
2019-05-21T13:18:09.324Z,50.90
2019-05-21T13:19:15.337Z,51.92
2019-05-21T13:20:22.281Z,49.95
2019-05-21T13:21:27.317Z,51.23
2019-05-21T13:22:33.045Z,55.67
2019-05-21T13:23:38.050Z,52.60
2019-05-21T13:24:43.807Z,56.85
2019-05-21T13:25:48.894Z,52.60
2019-05-21T13:26:54.844Z,54.63
2019-05-21T13:27:59.879Z,54.42
2019-05-21T13:29:05.831Z,55.90
2019-05-21T13:30:11.383Z,56.40
2019-05-21T13:31:17.238Z,56.18
2019-05-21T13:32:22.621Z,50.55
2019-05-21T13:33:28.786Z,61.15
2019-05-21T13:34:34.098Z,49.70
2019-05-21T13:35:39.767Z,55.30
2019-05-21T13:36:45.024Z,56.98
2019-05-21T13:37:50.996Z,60.08
2019-05-21T13:38:56.046Z,58.35
2019-05-21T13:40:01.776Z,61.68
2019-05-21T13:41:06.853Z,55.08
2019-05-21T13:42:12.464Z,50.23
2019-05-21T13:43:21.006Z,55.75
2019-05-21T13:44:25.007Z,53.02
2019-05-21T13:45:30.108Z,57.08
2019-05-21T13:46:35.949Z,55.17
2019-05-21T13:47:41.238Z,56.10
2019-05-21T13:48:47.330Z,57.98
2019-05-21T13:49:52.679Z,56.45
2019-05-21T13:50:58.273Z,57.88
2019-05-21T13:52:03.426Z,51.77
2019-05-21T13:53:09.534Z,53.00
2019-05-21T13:54:14.603Z,54.50
2019-05-21T13:55:20.450Z,54.90
2019-05-21T13:56:25.544Z,55.03
2019-05-21T13:57:31.476Z,49.20
2019-05-21T13:58:36.890Z,54.38
2019-05-21T13:59:42.655Z,49.95
2019-05-21T14:00:50.238Z,56.42
2019-05-21T14:01:55.790Z,59.93
2019-05-21T14:03:00.886Z,56.05
2019-05-21T14:04:06.650Z,48.75
2019-05-21T14:05:11.865Z,52.60
2019-05-21T14:06:20.173Z,54.30
2019-05-21T14:07:24.397Z,51.10
2019-05-21T14:08:30.085Z,53.60
2019-05-21T14:09:35.127Z,47.45
2019-05-21T14:10:41.236Z,50.98
2019-05-21T14:11:46.420Z,50.40